Time;durP1;ratioP1;P1;durP2;ratioP2;P2;SDS_P1;SDS_P2;PMS_P1;PMS_P2;Temp;Humidity;BMP_temperature;BMP_pressure;BME280_temperature;BME280_humidity;BME280_pressure;Samples;Min_cycle;Max_cycle;Signal;HPM_P1;HPM_P2
2022/12/09 00:01:15;;;;;;;34.67;18.33;;;0.70;99.90;;;;;;4989309;28;20199;-63
2022/12/09 00:03:44;;;;;;;31.93;19.13;;;0.60;99.90;;;;;;4974943;28;20814;-63
2022/12/09 00:06:16;;;;;;;33.70;19.50;;;0.50;99.90;;;;;;5017054;28;20191;-63
2022/12/09 00:08:45;;;;;;;33.63;18.80;;;0.40;99.90;;;;;;4983601;28;20197;-63
2022/12/09 00:11:13;;;;;;;29.80;18.50;;;0.40;99.90;;;;;;4987972;28;20227;-63
2022/12/09 00:13:43;;;;;;;32.60;19.20;;;0.40;99.90;;;;;;4986125;28;20238;-63
2022/12/09 00:16:14;;;;;;;33.17;18.30;;;0.40;99.90;;;;;;4977117;28;20285;-63
2022/12/09 00:18:43;;;;;;;34.93;19.13;;;0.40;99.90;;;;;;4977501;28;20237;-63
2022/12/09 00:21:14;;;;;;;30.17;18.40;;;0.50;99.90;;;;;;4980439;28;20198;-63
2022/12/09 00:23:42;;;;;;;29.43;17.40;;;0.50;99.90;;;;;;4981227;28;20227;-63
2022/12/09 00:26:11;;;;;;;33.47;19.00;;;0.50;99.90;;;;;;4987982;28;20199;-63
2022/12/09 00:28:39;;;;;;;34.87;18.77;;;0.50;99.90;;;;;;4982778;28;20667;-62
2022/12/09 00:31:14;;;;;;;31.07;18.80;;;0.50;99.90;;;;;;4990772;28;20256;-63
2022/12/09 00:33:43;;;;;;;37.83;19.20;;;0.40;99.90;;;;;;4980214;28;20634;-62
2022/12/09 00:36:13;;;;;;;30.80;18.03;;;0.40;99.90;;;;;;4979596;28;20674;-63
2022/12/09 00:38:42;;;;;;;29.73;18.67;;;0.40;99.90;;;;;;4992217;28;20229;-63
2022/12/09 00:41:11;;;;;;;36.83;19.10;;;0.50;99.90;;;;;;4988367;28;20608;-63
2022/12/09 00:43:40;;;;;;;32.90;19.80;;;0.50;99.90;;;;;;4983235;28;20218;-62
2022/12/09 00:46:10;;;;;;;36.23;18.60;;;0.50;99.90;;;;;;4978926;28;20188;-63
2022/12/09 00:48:40;;;;;;;32.20;19.03;;;0.50;99.90;;;;;;4989057;28;20231;-63
2022/12/09 00:51:10;;;;;;;36.17;19.20;;;0.50;99.90;;;;;;5009205;28;20203;-62
2022/12/09 00:53:38;;;;;;;34.13;18.87;;;0.60;99.90;;;;;;4983126;28;20572;-63
2022/12/09 00:56:07;;;;;;;42.33;19.13;;;0.60;99.90;;;;;;4978972;28;20740;-63
2022/12/09 00:58:36;;;;;;;33.17;18.73;;;0.60;99.90;;;;;;4988703;28;20202;-63
2022/12/09 01:01:04;;;;;;;35.00;19.93;;;0.60;99.90;;;;;;4988512;28;20202;-63
2022/12/09 01:03:34;;;;;;;30.87;18.53;;;0.70;99.90;;;;;;4995613;28;20727;-63
2022/12/09 01:06:08;;;;;;;31.87;19.27;;;0.70;99.90;;;;;;4973076;28;20242;-63
2022/12/09 01:08:37;;;;;;;29.57;18.30;;;0.70;99.90;;;;;;4974060;28;20576;-63
2022/12/09 01:11:10;;;;;;;43.43;24.73;;;0.80;99.90;;;;;;4984329;28;20226;-63
2022/12/09 01:13:40;;;;;;;43.00;24.80;;;0.80;99.90;;;;;;4982194;28;20229;-63
2022/12/09 01:16:14;;;;;;;44.20;25.73;;;0.70;99.90;;;;;;4981535;28;20572;-63
2022/12/09 01:18:44;;;;;;;44.70;24.53;;;0.70;99.90;;;;;;4978691;28;20260;-63
2022/12/09 01:21:13;;;;;;;43.30;23.90;;;0.70;99.90;;;;;;4977854;28;20191;-63
2022/12/09 01:23:42;;;;;;;40.67;23.40;;;0.70;99.90;;;;;;4977527;28;20551;-63
2022/12/09 01:26:11;;;;;;;37.20;21.47;;;0.70;99.90;;;;;;4981424;28;20290;-63
2022/12/09 01:28:39;;;;;;;39.00;21.43;;;0.80;99.90;;;;;;4980096;28;20203;-63
2022/12/09 01:31:10;;;;;;;40.47;21.90;;;0.90;99.90;;;;;;4979737;28;21522;-63
2022/12/09 01:33:39;;;;;;;38.13;21.60;;;0.80;99.90;;;;;;4977805;28;20203;-63
2022/12/09 01:36:13;;;;;;;36.77;21.73;;;0.70;99.90;;;;;;4987364;28;20223;-63
2022/12/09 01:38:42;;;;;;;37.83;21.10;;;0.70;99.90;;;;;;5016667;28;20198;-63
2022/12/09 01:41:10;;;;;;;43.67;22.53;;;0.70;99.90;;;;;;4981506;28;20202;-63
2022/12/09 01:43:39;;;;;;;38.97;21.50;;;0.70;99.90;;;;;;4973217;28;20227;-63
2022/12/09 01:46:09;;;;;;;37.67;22.10;;;0.70;99.90;;;;;;4973558;28;20219;-63
2022/12/09 01:48:41;;;;;;;39.17;21.33;;;0.60;99.90;;;;;;4984424;28;20201;-63
2022/12/09 01:51:13;;;;;;;36.97;21.37;;;0.60;99.90;;;;;;4982457;28;20195;-63
2022/12/09 01:53:44;;;;;;;40.83;22.57;;;0.60;99.90;;;;;;4985385;28;20231;-63
2022/12/09 01:56:22;;;;;;;36.37;21.50;;;0.60;99.90;;;;;;4980016;28;20212;-63
2022/12/09 01:58:53;;;;;;;35.90;21.40;;;0.60;99.90;;;;;;4980066;28;20203;-63
2022/12/09 02:01:22;;;;;;;40.67;22.40;;;0.50;99.90;;;;;;4989572;28;20207;-63
2022/12/09 02:03:51;;;;;;;42.30;22.67;;;0.40;99.90;;;;;;4987670;28;20190;-63
2022/12/09 02:06:21;;;;;;;44.97;23.57;;;0.40;99.90;;;;;;4978178;28;20204;-63
2022/12/09 02:08:50;;;;;;;38.00;21.70;;;0.30;99.90;;;;;;4981612;28;20523;-63
2022/12/09 02:11:27;;;;;;;42.23;21.97;;;0.40;99.90;;;;;;4983354;28;20198;-63
2022/12/09 02:14:03;;;;;;;43.40;21.93;;;0.30;99.90;;;;;;4990850;28;20698;-63
2022/12/09 02:16:36;;;;;;;43.50;23.30;;;0.30;99.90;;;;;;4977428;28;20704;-63
2022/12/09 02:19:21;;;;;;;39.70;21.93;;;0.30;99.90;;;;;;4993592;28;20264;-63
2022/12/09 02:21:56;;;;;;;64.53;27.83;;;0.20;99.90;;;;;;4980064;28;20542;-63
2022/12/09 02:24:37;;;;;;;63.80;27.37;;;0.10;99.90;;;;;;4975139;28;20205;-63
2022/12/09 02:27:12;;;;;;;67.17;26.87;;;0.10;99.90;;;;;;5000101;28;20191;-63
2022/12/09 02:30:03;;;;;;;83.13;31.50;;;0.00;99.90;;;;;;4978680;28;20218;-63
2022/12/09 02:32:53;;;;;;;85.97;34.60;;;-0.10;99.90;;;;;;4980646;28;20229;-63
2022/12/09 02:35:28;;;;;;;69.17;28.50;;;-0.10;99.90;;;;;;4993055;28;20577;-63
2022/12/09 02:38:00;;;;;;;55.77;25.37;;;-0.20;99.90;;;;;;4980377;28;20222;-63
2022/12/09 02:40:33;;;;;;;45.77;22.67;;;-0.30;99.90;;;;;;4983194;28;20195;-63
2022/12/09 02:43:06;;;;;;;48.53;22.23;;;-0.30;99.90;;;;;;4981113;28;20194;-63
2022/12/09 02:45:37;;;;;;;47.70;23.33;;;-0.30;99.90;;;;;;4976718;28;20199;-63
2022/12/09 02:48:08;;;;;;;48.53;22.80;;;-0.30;99.90;;;;;;4980888;28;20215;-63
2022/12/09 02:50:40;;;;;;;41.40;22.70;;;-0.30;99.90;;;;;;4980309;28;20203;-63
2022/12/09 02:53:13;;;;;;;43.17;22.37;;;-0.40;99.90;;;;;;4983371;28;20195;-63
2022/12/09 02:55:45;;;;;;;51.77;23.53;;;-0.30;99.90;;;;;;4977752;28;20693;-63
2022/12/09 02:58:13;;;;;;;44.27;22.40;;;-0.30;99.90;;;;;;4978158;28;20634;-63
2022/12/09 03:00:42;;;;;;;47.47;22.70;;;-0.30;99.90;;;;;;4985320;28;20233;-63
2022/12/09 03:03:14;;;;;;;43.07;21.70;;;-0.30;99.90;;;;;;4985926;28;20187;-63
2022/12/09 03:05:51;;;;;;;48.07;22.53;;;-0.40;99.90;;;;;;4983351;28;20198;-63
2022/12/09 03:08:31;;;;;;;48.10;22.40;;;-0.40;99.90;;;;;;4976849;28;20209;-62
2022/12/09 03:11:02;;;;;;;47.27;22.83;;;-0.50;99.90;;;;;;4978506;28;20294;-63
2022/12/09 03:13:47;;;;;;;49.53;23.27;;;-0.40;99.90;;;;;;4987422;28;20200;-63
2022/12/09 03:16:22;;;;;;;48.13;22.50;;;-0.50;99.90;;;;;;4981830;28;20233;-62
2022/12/09 03:18:55;;;;;;;48.77;22.83;;;-0.50;99.90;;;;;;4982074;28;20199;-63
2022/12/09 03:21:30;;;;;;;52.97;24.23;;;-0.50;99.90;;;;;;5007514;28;20206;-63
2022/12/09 03:24:00;;;;;;;47.00;23.17;;;-0.50;99.90;;;;;;4987148;28;20202;-63
2022/12/09 03:26:32;;;;;;;44.97;22.20;;;-0.50;99.90;;;;;;4982999;28;20655;-63
2022/12/09 03:29:04;;;;;;;47.67;22.40;;;-0.50;99.90;;;;;;4996582;28;20303;-63
2022/12/09 03:31:34;;;;;;;53.50;21.97;;;-0.50;99.90;;;;;;4987736;28;20638;-63
2022/12/09 03:34:05;;;;;;;49.27;22.73;;;-0.50;99.90;;;;;;4989009;28;20260;-63
2022/12/09 03:36:38;;;;;;;49.83;22.37;;;-0.60;99.90;;;;;;4980647;28;20222;-63
2022/12/09 03:39:11;;;;;;;48.07;22.17;;;-0.60;99.90;;;;;;4985799;28;20195;-63
2022/12/09 03:41:45;;;;;;;52.30;23.67;;;-0.70;99.90;;;;;;4983012;28;20650;-63
2022/12/09 03:44:19;;;;;;;46.93;23.70;;;-0.70;99.90;;;;;;4986591;28;20221;-63
2022/12/09 03:46:48;;;;;;;47.80;22.27;;;-0.70;99.90;;;;;;4972549;28;20249;-63
2022/12/09 03:49:17;;;;;;;53.17;24.13;;;-0.70;99.90;;;;;;4989004;28;20203;-63
2022/12/09 03:51:55;;;;;;;54.40;23.97;;;-0.70;99.90;;;;;;4995618;28;20621;-63
2022/12/09 03:54:28;;;;;;;52.80;23.73;;;-0.70;99.90;;;;;;4983987;28;20222;-63
2022/12/09 03:56:58;;;;;;;51.00;23.30;;;-0.80;99.90;;;;;;4998429;28;20215;-63
2022/12/09 03:59:30;;;;;;;52.77;23.07;;;-0.80;99.90;;;;;;4990511;28;20203;-62
2022/12/09 04:01:59;;;;;;;50.07;22.87;;;-0.80;99.90;;;;;;4983413;28;20202;-63
2022/12/09 04:04:28;;;;;;;44.50;21.27;;;-0.90;99.90;;;;;;4987407;28;20282;-63
2022/12/09 04:07:00;;;;;;;50.87;23.33;;;-0.90;99.90;;;;;;4983979;28;20260;-63
2022/12/09 04:09:29;;;;;;;49.00;22.50;;;-0.90;99.90;;;;;;4980549;28;20278;-63
2022/12/09 04:11:58;;;;;;;47.70;22.40;;;-1.00;99.90;;;;;;4985435;28;20198;-63
2022/12/09 04:14:26;;;;;;;55.70;25.57;;;-1.00;99.90;;;;;;4979535;28;20715;-63
2022/12/09 04:16:55;;;;;;;58.63;26.70;;;-0.90;99.90;;;;;;4981751;28;20932;-63
2022/12/09 04:19:24;;;;;;;55.50;24.37;;;-0.90;99.90;;;;;;4978539;28;20239;-63
2022/12/09 04:21:52;;;;;;;62.10;25.10;;;-1.00;99.90;;;;;;5000092;28;20633;-63
2022/12/09 04:24:22;;;;;;;56.47;24.77;;;-0.90;99.90;;;;;;4975279;28;20199;-63
2022/12/09 04:26:50;;;;;;;79.50;31.00;;;-1.00;99.90;;;;;;4974651;28;20696;-63
2022/12/09 04:29:19;;;;;;;119.13;45.70;;;-1.00;99.90;;;;;;4986354;28;20229;-63
2022/12/09 04:31:47;;;;;;;60.97;28.40;;;-1.00;99.90;;;;;;5000521;28;20855;-63
2022/12/09 04:34:15;;;;;;;75.67;27.07;;;-1.00;99.90;;;;;;4999128;28;20278;-63
2022/12/09 04:36:44;;;;;;;64.20;24.40;;;-0.90;99.90;;;;;;4986392;28;20733;-63
2022/12/09 04:39:13;;;;;;;90.33;25.57;;;-1.00;99.90;;;;;;4977828;28;20557;-63
2022/12/09 04:41:43;;;;;;;70.43;25.03;;;-0.90;99.90;;;;;;4983496;28;20199;-63
2022/12/09 04:44:11;;;;;;;70.73;25.20;;;-0.90;99.90;;;;;;4980669;28;20200;-63
2022/12/09 04:46:40;;;;;;;108.80;24.73;;;-1.00;99.90;;;;;;4978591;28;20857;-63
2022/12/09 04:49:09;;;;;;;53.77;21.97;;;-1.00;99.90;;;;;;4978788;28;20572;-64
2022/12/09 04:51:37;;;;;;;57.10;22.63;;;-1.10;99.90;;;;;;4984159;28;20222;-63
2022/12/09 04:54:12;;;;;;;61.33;23.67;;;-1.00;99.90;;;;;;4978458;28;20219;-63
2022/12/09 04:56:42;;;;;;;52.30;22.23;;;-1.10;99.90;;;;;;4973680;28;20276;-63
2022/12/09 04:59:11;;;;;;;59.57;22.63;;;-1.10;99.90;;;;;;4971561;28;20519;-63
2022/12/09 05:01:39;;;;;;;55.60;21.77;;;-1.10;99.90;;;;;;4982726;28;20214;-63
2022/12/09 05:04:08;;;;;;;65.80;22.47;;;-1.20;99.90;;;;;;4979289;28;20188;-63
2022/12/09 05:06:38;;;;;;;48.27;20.70;;;-1.20;99.90;;;;;;4976801;28;20645;-63
2022/12/09 05:09:11;;;;;;;59.97;21.20;;;-1.20;99.90;;;;;;4983747;28;20222;-63
2022/12/09 05:11:42;;;;;;;56.60;20.73;;;-1.30;99.90;;;;;;4977947;28;20203;-63
2022/12/09 05:14:10;;;;;;;79.00;22.37;;;-1.30;99.90;;;;;;4982080;28;20195;-63
2022/12/09 05:16:39;;;;;;;55.33;21.53;;;-1.20;99.90;;;;;;4973702;28;20239;-63
2022/12/09 05:19:08;;;;;;;68.47;20.93;;;-1.20;99.90;;;;;;4975477;28;20201;-63
2022/12/09 05:21:37;;;;;;;74.83;22.77;;;-1.30;99.90;;;;;;4996307;28;20597;-64
2022/12/09 05:24:06;;;;;;;75.97;22.77;;;-1.30;99.90;;;;;;4975011;28;20189;-64
2022/12/09 05:26:36;;;;;;;59.83;20.83;;;-1.20;99.90;;;;;;4976068;28;20278;-64
2022/12/09 05:29:05;;;;;;;75.30;23.60;;;-1.20;99.90;;;;;;4972093;28;20245;-63
2022/12/09 05:31:34;;;;;;;82.47;23.50;;;-1.20;99.90;;;;;;4985211;28;20218;-63
2022/12/09 05:34:03;;;;;;;89.83;23.60;;;-1.20;99.90;;;;;;5039777;28;20661;-63
2022/12/09 05:36:31;;;;;;;68.03;22.87;;;-1.20;99.90;;;;;;4985843;28;20245;-64
2022/12/09 05:39:00;;;;;;;64.53;23.07;;;-1.30;99.90;;;;;;4993973;28;20199;-64
2022/12/09 05:41:29;;;;;;;61.67;22.80;;;-1.20;99.90;;;;;;5010165;28;20198;-63
2022/12/09 05:43:57;;;;;;;68.70;23.93;;;-1.20;99.90;;;;;;4974895;28;20207;-63
2022/12/09 05:46:28;;;;;;;54.97;22.13;;;-1.20;99.90;;;;;;4982515;28;20857;-64
2022/12/09 05:48:57;;;;;;;51.17;21.97;;;-1.20;99.90;;;;;;4980472;28;20233;-64
2022/12/09 05:51:28;;;;;;;65.23;24.20;;;-1.20;99.90;;;;;;5001917;28;20206;-64
2022/12/09 05:54:00;;;;;;;75.40;26.73;;;-1.20;99.90;;;;;;4995409;28;20657;-64
2022/12/09 05:56:29;;;;;;;77.50;25.90;;;-1.20;99.90;;;;;;4980781;28;20195;-64
2022/12/09 05:58:59;;;;;;;53.17;23.33;;;-1.30;99.90;;;;;;4979619;28;20195;-64
2022/12/09 06:01:30;;;;;;;57.00;23.67;;;-1.30;99.90;;;;;;4981689;28;20210;-64
2022/12/09 06:03:58;;;;;;;61.47;23.80;;;-1.20;99.90;;;;;;4989404;28;20252;-64
2022/12/09 06:06:28;;;;;;;55.00;23.03;;;-1.30;99.90;;;;;;4976319;28;20214;-64
2022/12/09 06:09:01;;;;;;;58.67;23.30;;;-1.30;99.90;;;;;;4980659;28;20192;-64
2022/12/09 06:11:31;;;;;;;48.50;21.60;;;-1.30;99.90;;;;;;4987646;28;20392;-64
2022/12/09 06:14:00;;;;;;;50.40;22.10;;;-1.40;99.90;;;;;;4982621;28;20211;-64
2022/12/09 06:16:32;;;;;;;58.77;22.67;;;-1.30;99.90;;;;;;4976395;28;20331;-64
2022/12/09 06:19:01;;;;;;;66.23;26.37;;;-1.40;99.90;;;;;;4996487;28;20285;-64
2022/12/09 06:21:30;;;;;;;60.20;24.37;;;-1.40;99.90;;;;;;4973522;28;20199;-64
2022/12/09 06:23:58;;;;;;;62.47;23.20;;;-1.40;99.90;;;;;;4975084;28;20214;-64
2022/12/09 06:26:28;;;;;;;56.23;23.10;;;-1.40;99.90;;;;;;4974662;28;20673;-64
2022/12/09 06:28:58;;;;;;;54.70;22.33;;;-1.50;99.90;;;;;;4986308;28;20202;-64
2022/12/09 06:31:29;;;;;;;51.63;21.60;;;-1.40;99.90;;;;;;5011984;28;20234;-64
2022/12/09 06:34:00;;;;;;;57.40;23.27;;;-1.40;99.90;;;;;;5017774;28;20220;-64
2022/12/09 06:36:30;;;;;;;87.27;23.97;;;-1.40;99.90;;;;;;4985389;28;20210;-64
2022/12/09 06:39:02;;;;;;;65.47;24.13;;;-1.50;99.90;;;;;;4987642;28;20215;-64
2022/12/09 06:41:37;;;;;;;87.13;23.63;;;-1.50;99.90;;;;;;4988868;28;20657;-64
2022/12/09 06:44:06;;;;;;;69.90;23.50;;;-1.50;99.90;;;;;;4983426;28;20199;-64
2022/12/09 06:46:35;;;;;;;64.72;27.80;;;-1.50;99.90;;;;;;4984422;28;20920;-64
2022/12/09 06:49:05;;;;;;;75.23;24.63;;;-1.50;99.90;;;;;;4990403;28;20203;-65
2022/12/09 06:51:34;;;;;;;66.73;23.10;;;-1.40;99.90;;;;;;5007948;28;20672;-65
2022/12/09 06:54:03;;;;;;;158.47;24.13;;;-1.40;99.90;;;;;;4979767;28;20215;-65
2022/12/09 06:56:34;;;;;;;106.07;22.37;;;-1.40;99.90;;;;;;4984006;28;20863;-64
2022/12/09 06:59:06;;;;;;;110.27;24.17;;;-1.50;99.90;;;;;;4982095;28;20210;-64
2022/12/09 07:01:35;;;;;;;57.03;22.03;;;-1.50;99.90;;;;;;4989757;28;20199;-65
2022/12/09 07:04:06;;;;;;;96.50;23.40;;;-1.60;99.90;;;;;;4977017;28;20710;-64
2022/12/09 07:06:37;;;;;;;78.50;22.57;;;-1.50;99.90;;;;;;4985472;28;20235;-65
2022/12/09 07:09:08;;;;;;;66.53;22.53;;;-1.50;99.90;;;;;;4979817;28;20256;-65
2022/12/09 07:11:39;;;;;;;133.53;23.83;;;-1.50;99.90;;;;;;4991161;28;20814;-65
2022/12/09 07:14:08;;;;;;;114.67;24.17;;;-1.50;99.90;;;;;;4980769;28;20279;-64
2022/12/09 07:16:37;;;;;;;224.13;27.13;;;-1.50;99.90;;;;;;4975791;28;20240;-65
2022/12/09 07:19:07;;;;;;;78.20;23.50;;;-1.50;99.90;;;;;;4992225;28;20676;-64
2022/12/09 07:21:36;;;;;;;148.47;26.60;;;-1.60;99.90;;;;;;4981361;28;20211;-64
2022/12/09 07:24:06;;;;;;;121.33;27.60;;;-1.50;99.90;;;;;;4991909;28;20292;-64
2022/12/09 07:26:34;;;;;;;150.07;27.57;;;-1.60;99.90;;;;;;4980545;28;20202;-64
2022/12/09 07:29:04;;;;;;;169.87;28.27;;;-1.60;99.90;;;;;;4972226;28;20275;-64
2022/12/09 07:31:34;;;;;;;143.27;26.50;;;-1.60;99.90;;;;;;4978122;28;20669;-64
2022/12/09 07:34:04;;;;;;;126.70;23.50;;;-1.60;99.90;;;;;;5018057;28;20260;-64
2022/12/09 07:36:37;;;;;;;348.10;31.83;;;-1.60;99.90;;;;;;4983114;28;20195;-64
2022/12/09 07:39:08;;;;;;;121.87;24.13;;;-1.50;99.90;;;;;;4984641;28;20697;-64
2022/12/09 07:41:37;;;;;;;227.50;27.37;;;-1.60;99.90;;;;;;4980565;28;20709;-64
2022/12/09 07:44:06;;;;;;;147.37;28.27;;;-1.50;99.90;;;;;;4992224;28;20187;-64
2022/12/09 07:46:34;;;;;;;135.23;25.93;;;-1.50;99.90;;;;;;4981039;28;20715;-64
2022/12/09 07:49:05;;;;;;;157.60;29.13;;;-1.50;99.90;;;;;;4979175;28;20256;-64
2022/12/09 07:51:34;;;;;;;88.17;25.93;;;-1.40;99.90;;;;;;4974330;28;20593;-64
2022/12/09 07:54:04;;;;;;;192.27;28.10;;;-1.40;99.90;;;;;;4982731;28;20242;-64
2022/12/09 07:56:33;;;;;;;214.37;29.13;;;-1.30;99.90;;;;;;4975412;28;20767;-64
2022/12/09 07:59:05;;;;;;;86.93;25.80;;;-1.20;99.90;;;;;;4981400;28;20207;-64
2022/12/09 08:01:34;;;;;;;169.47;33.20;;;-1.20;99.90;;;;;;4987799;28;20283;-64
2022/12/09 08:04:04;;;;;;;89.50;28.20;;;-1.20;99.90;;;;;;4988819;28;20191;-65
2022/12/09 08:06:34;;;;;;;113.50;29.87;;;-1.20;99.90;;;;;;4977558;28;20519;-65
2022/12/09 08:09:08;;;;;;;256.40;36.13;;;-1.20;99.90;;;;;;5014815;28;20203;-65
2022/12/09 08:11:37;;;;;;;111.27;28.13;;;-1.10;99.90;;;;;;4986040;28;20611;-65
2022/12/09 08:14:10;;;;;;;125.30;29.03;;;-1.10;99.90;;;;;;4983668;28;20249;-65
2022/12/09 08:16:41;;;;;;;134.50;27.30;;;-1.10;99.90;;;;;;5010649;28;20649;-65
2022/12/09 08:19:10;;;;;;;214.13;30.40;;;-1.00;99.90;;;;;;4979702;28;20257;-65
2022/12/09 08:21:39;;;;;;;119.40;29.37;;;-0.90;99.90;;;;;;4981605;28;20202;-65
2022/12/09 08:24:11;;;;;;;178.10;30.77;;;-0.90;99.90;;;;;;4984809;28;20676;-65
2022/12/09 08:26:41;;;;;;;117.70;28.03;;;-0.80;99.90;;;;;;4982775;28;20579;-65
2022/12/09 08:29:11;;;;;;;283.73;32.93;;;-0.80;99.90;;;;;;4990213;28;20371;-65
2022/12/09 08:31:42;;;;;;;241.27;32.57;;;-0.80;99.90;;;;;;4981209;28;20195;-65
2022/12/09 08:34:12;;;;;;;264.73;34.13;;;-0.80;99.90;;;;;;4989806;28;20603;-64
2022/12/09 08:36:42;;;;;;;232.83;32.20;;;-0.80;99.90;;;;;;4986194;28;20190;-65
2022/12/09 08:39:13;;;;;;;133.33;30.87;;;-0.80;99.90;;;;;;5009633;28;20246;-65
2022/12/09 08:41:43;;;;;;;179.00;37.93;;;-0.80;99.90;;;;;;4985842;28;20634;-65
2022/12/09 08:44:14;;;;;;;291.40;69.87;;;-0.70;99.90;;;;;;5008626;28;20188;-65
2022/12/09 08:46:45;;;;;;;169.70;64.67;;;-0.80;99.90;;;;;;4993828;28;20191;-65
2022/12/09 08:49:16;;;;;;;222.43;35.00;;;-0.70;99.90;;;;;;4987418;28;20282;-65
2022/12/09 08:51:47;;;;;;;115.10;30.00;;;-0.60;99.90;;;;;;4979814;28;20274;-65
2022/12/09 08:54:17;;;;;;;119.83;28.47;;;-0.50;99.90;;;;;;4976317;28;20214;-65
2022/12/09 08:56:47;;;;;;;89.63;29.97;;;-0.50;99.90;;;;;;4980479;28;20203;-65
2022/12/09 08:59:17;;;;;;;95.13;30.17;;;-0.50;99.90;;;;;;4976165;28;20221;-65
2022/12/09 09:01:47;;;;;;;193.23;31.70;;;-0.50;99.90;;;;;;4986163;28;20217;-64
2022/12/09 09:04:18;;;;;;;151.53;32.90;;;-0.40;99.90;;;;;;4984816;28;20209;-65
2022/12/09 09:06:49;;;;;;;99.33;28.90;;;-0.50;99.90;;;;;;4986276;28;20226;-65
2022/12/09 09:09:21;;;;;;;121.67;30.37;;;-0.50;99.90;;;;;;4985370;28;20191;-65
2022/12/09 09:11:50;;;;;;;167.50;30.20;;;-0.50;99.90;;;;;;4982000;28;20286;-65
2022/12/09 09:14:19;;;;;;;137.20;30.60;;;-0.40;99.90;;;;;;4981338;28;20472;-65
2022/12/09 09:16:48;;;;;;;99.10;28.93;;;-0.40;99.90;;;;;;4985912;28;20305;-65
2022/12/09 09:19:18;;;;;;;135.97;30.43;;;-0.30;99.90;;;;;;4975438;28;20204;-65
2022/12/09 09:21:48;;;;;;;123.40;30.37;;;-0.40;99.90;;;;;;4987285;28;20199;-65
2022/12/09 09:24:19;;;;;;;119.57;31.20;;;-0.40;99.90;;;;;;4988292;28;20292;-65
2022/12/09 09:26:50;;;;;;;203.27;33.63;;;-0.40;99.90;;;;;;4986938;28;20676;-65
2022/12/09 09:29:21;;;;;;;89.03;29.47;;;-0.40;99.90;;;;;;4984608;28;20191;-65
2022/12/09 09:31:52;;;;;;;117.90;29.23;;;-0.30;99.90;;;;;;4981413;28;20209;-65
2022/12/09 09:34:23;;;;;;;115.03;30.87;;;-0.20;99.90;;;;;;4993239;28;20218;-65
2022/12/09 09:36:52;;;;;;;160.30;31.70;;;-0.30;99.90;;;;;;4970387;28;20206;-64
2022/12/09 09:39:21;;;;;;;185.80;34.90;;;-0.20;99.90;;;;;;4971244;28;20735;-64
2022/12/09 09:41:55;;;;;;;222.30;32.03;;;-0.30;99.90;;;;;;4984064;28;20263;-65
2022/12/09 09:44:27;;;;;;;81.83;28.37;;;-0.30;99.90;;;;;;4982465;28;20220;-65
2022/12/09 09:46:57;;;;;;;125.90;30.67;;;-0.20;99.90;;;;;;4987360;28;20294;-65
2022/12/09 09:49:36;;;;;;;132.03;30.13;;;-0.20;99.90;;;;;;4972924;28;20253;-64
2022/12/09 09:52:08;;;;;;;156.17;30.23;;;-0.10;99.90;;;;;;4972618;28;20282;-64
2022/12/09 09:54:37;;;;;;;118.63;29.70;;;-0.10;99.90;;;;;;4974639;28;20264;-64
2022/12/09 09:57:14;;;;;;;102.47;28.70;;;-0.10;99.90;;;;;;4980693;28;20634;-64
2022/12/09 09:59:58;;;;;;;120.93;29.23;;;-0.20;99.90;;;;;;4979313;28;20211;-64
2022/12/09 10:03:01;;;;;;;150.90;30.70;;;-0.20;99.90;;;;;;4975444;28;20195;-64
2022/12/09 10:05:33;;;;;;;189.20;28.90;;;-0.20;99.90;;;;;;4979207;28;20217;-64
2022/12/09 10:08:18;;;;;;;111.93;28.80;;;-0.20;99.90;;;;;;4989916;28;20187;-65
2022/12/09 10:10:59;;;;;;;74.07;26.07;;;-0.20;99.90;;;;;;4986523;28;20199;-64
2022/12/09 10:13:45;;;;;;;95.40;25.53;;;-0.20;99.90;;;;;;4980758;28;20211;-65
2022/12/09 10:16:17;;;;;;;132.07;27.00;;;-0.20;99.90;;;;;;4990026;28;20238;-64
2022/12/09 10:19:02;;;;;;;55.10;23.63;;;-0.20;99.90;;;;;;4977515;28;20229;-65
2022/12/09 10:21:40;;;;;;;89.40;26.60;;;-0.20;99.90;;;;;;4978668;28;20198;-64
2022/12/09 10:24:21;;;;;;;143.13;27.57;;;-0.10;99.90;;;;;;4984837;28;20191;-64
2022/12/09 10:26:58;;;;;;;80.13;25.27;;;-0.10;99.90;;;;;;4975075;28;20359;-64
2022/12/09 10:29:45;;;;;;;93.90;24.93;;;-0.10;99.90;;;;;;4977309;28;20217;-64
2022/12/09 10:32:17;;;;;;;149.93;26.07;;;-0.10;99.90;;;;;;4979991;28;20204;-64
2022/12/09 10:34:47;;;;;;;97.97;26.50;;;-0.10;99.90;;;;;;4996641;28;20664;-65
2022/12/09 10:37:27;;;;;;;68.50;24.67;;;0.00;99.90;;;;;;5011878;28;20282;-64
2022/12/09 10:40:03;;;;;;;95.50;24.17;;;0.00;99.90;;;;;;4983499;28;20210;-64
2022/12/09 10:45:28;;;;;;;81.67;24.20;;;0.10;99.90;;;;;;4986343;28;20198;-65
2022/12/09 10:48:21;;;;;;;68.33;23.27;;;0.10;99.90;;;;;;4973813;28;20244;-64
2022/12/09 10:50:56;;;;;;;90.30;25.70;;;0.20;99.90;;;;;;4978630;28;20269;-65
2022/12/09 10:53:27;;;;;;;89.47;28.13;;;0.20;99.90;;;;;;4986386;28;20204;-64
2022/12/09 10:55:58;;;;;;;48.27;22.87;;;0.10;99.90;;;;;;4983760;28;20203;-64
2022/12/09 10:58:28;;;;;;;108.10;40.67;;;0.20;99.90;;;;;;4972433;28;20281;-64
2022/12/09 11:01:08;;;;;;;116.50;36.10;;;0.20;99.90;;;;;;4983056;28;20227;-64
2022/12/09 11:03:39;;;;;;;66.67;22.67;;;0.20;99.90;;;;;;4993798;28;20206;-64
2022/12/09 11:06:20;;;;;;;81.57;24.23;;;0.20;99.90;;;;;;4976101;28;20241;-64
2022/12/09 11:08:52;;;;;;;72.90;22.83;;;0.20;99.90;;;;;;4984926;28;20734;-64
2022/12/09 11:11:40;;;;;;;50.30;21.47;;;0.20;99.90;;;;;;4981635;28;20658;-65
2022/12/09 11:14:22;;;;;;;52.23;23.67;;;0.20;99.90;;;;;;4984073;28;20615;-64
2022/12/09 11:16:55;;;;;;;66.63;27.10;;;0.30;99.90;;;;;;4985786;28;20226;-64
2022/12/09 11:19:33;;;;;;;52.27;23.47;;;0.30;99.90;;;;;;4983885;28;20199;-64
2022/12/09 11:22:34;;;;;;;73.33;23.77;;;0.40;99.90;;;;;;4988477;28;20199;-64
2022/12/09 11:25:23;;;;;;;62.10;24.60;;;0.40;99.90;;;;;;4983000;28;20229;-65
2022/12/09 11:27:54;;;;;;;89.33;25.63;;;0.40;99.90;;;;;;4979584;28;20704;-65
2022/12/09 11:30:25;;;;;;;97.70;23.73;;;0.30;99.90;;;;;;4986282;28;20286;-64
2022/12/09 11:33:04;;;;;;;79.50;23.87;;;0.20;99.90;;;;;;4993930;28;20541;-64
2022/12/09 11:35:39;;;;;;;59.10;23.07;;;0.20;99.90;;;;;;4990246;28;20636;-64
2022/12/09 11:38:21;;;;;;;64.47;24.57;;;0.30;99.90;;;;;;4991112;28;20205;-64
2022/12/09 11:41:01;;;;;;;57.97;22.83;;;0.40;99.90;;;;;;4989070;28;20229;-64
2022/12/09 11:43:33;;;;;;;84.23;31.60;;;0.40;99.90;;;;;;4980906;28;20203;-65
2022/12/09 11:46:09;;;;;;;60.30;24.70;;;0.40;99.90;;;;;;4977586;28;20196;-65
2022/12/09 11:48:40;;;;;;;97.43;25.77;;;0.30;99.90;;;;;;4973075;28;20206;-64
2022/12/09 11:51:21;;;;;;;104.43;25.53;;;0.30;99.90;;;;;;4981509;28;20270;-65
2022/12/09 11:53:54;;;;;;;64.10;23.10;;;0.40;99.90;;;;;;4994027;28;20715;-64
2022/12/09 11:56:30;;;;;;;76.93;24.80;;;0.40;99.90;;;;;;4980251;28;20209;-64
2022/12/09 11:59:03;;;;;;;61.25;29.65;;;0.50;99.90;;;;;;4978095;28;20448;-64
2022/12/09 12:01:44;;;;;;;66.83;27.70;;;0.50;99.90;;;;;;4994900;28;20221;-65
2022/12/09 12:04:16;;;;;;;65.60;25.83;;;0.60;99.90;;;;;;4982727;28;20539;-65
2022/12/09 12:06:49;;;;;;;65.87;25.73;;;0.40;99.90;;;;;;4985076;28;20203;-64
2022/12/09 12:09:23;;;;;;;57.07;25.90;;;0.40;99.90;;;;;;4986357;28;20221;-64
2022/12/09 12:12:07;;;;;;;68.53;26.77;;;0.40;99.90;;;;;;4977178;28;20193;-64
2022/12/09 12:14:38;;;;;;;61.30;24.57;;;0.40;99.90;;;;;;4977637;28;20274;-64
2022/12/09 12:17:15;;;;;;;70.63;26.17;;;0.50;99.90;;;;;;4982231;28;20713;-65
2022/12/09 12:19:49;;;;;;;80.47;30.27;;;0.50;99.90;;;;;;4979006;28;20269;-65
2022/12/09 12:22:27;;;;;;;72.70;25.73;;;0.60;99.90;;;;;;4981322;28;20191;-64
2022/12/09 12:25:25;;;;;;;67.37;26.40;;;0.60;99.90;;;;;;4978497;28;20194;-64
2022/12/09 12:28:17;;;;;;;61.37;24.90;;;0.70;99.90;;;;;;4981477;28;20206;-65
2022/12/09 12:30:54;;;;;;;74.17;26.23;;;0.70;99.90;;;;;;4975167;28;20200;-65
2022/12/09 12:33:38;;;;;;;67.83;26.03;;;0.80;99.90;;;;;;5007098;28;20194;-64
2022/12/09 12:36:36;;;;;;;71.33;25.60;;;0.80;99.90;;;;;;4977569;28;20206;-65
2022/12/09 12:39:13;;;;;;;75.60;26.67;;;0.80;99.90;;;;;;4977169;28;20191;-65
2022/12/09 12:41:48;;;;;;;77.73;26.27;;;0.80;99.90;;;;;;4973449;28;20311;-65
2022/12/09 12:47:24;;;;;;;60.47;25.00;;;0.80;99.90;;;;;;4972548;28;20211;-65
2022/12/09 12:50:25;;;;;;;93.33;28.03;;;0.80;99.90;;;;;;4983109;28;20205;-64
2022/12/09 12:53:04;;;;;;;74.23;25.60;;;0.80;99.90;;;;;;4973913;28;20303;-65
2022/12/09 12:55:51;;;;;;;63.27;26.67;;;0.80;99.90;;;;;;4975200;28;20237;-65
2022/12/09 12:58:43;;;;;;;66.47;28.07;;;0.80;99.90;;;;;;4969520;28;20199;-65
2022/12/09 13:01:20;;;;;;;56.43;25.77;;;0.80;99.90;;;;;;4977570;28;20207;-65